createdAt,value
2023-09-25T00:01:32.095Z,19.08
2023-09-25T00:05:34.516Z,19.23
2023-09-25T00:09:36.246Z,18.87
2023-09-25T00:13:38.209Z,18.90
2023-09-25T00:17:41.215Z,18.55
2023-09-25T00:21:43.123Z,18.12
2023-09-25T00:25:44.810Z,18.76
2023-09-25T00:29:46.364Z,18.97
2023-09-25T00:33:48.041Z,18.56
2023-09-25T00:37:49.605Z,18.85
2023-09-25T00:41:51.186Z,18.63
2023-09-25T00:45:52.988Z,19.09
2023-09-25T00:49:57.596Z,17.71
2023-09-25T00:53:59.195Z,18.43
2023-09-25T00:58:02.000Z,18.39
2023-09-25T01:02:03.471Z,18.62
2023-09-25T01:06:06.551Z,18.22
2023-09-25T01:10:15.549Z,18.86
2023-09-25T01:14:17.457Z,17.66
2023-09-25T01:18:18.937Z,18.00
2023-09-25T01:22:20.477Z,17.54
2023-09-25T01:26:21.946Z,17.46
2023-09-25T01:30:24.492Z,17.93
2023-09-25T01:34:26.092Z,17.96
2023-09-25T01:38:28.151Z,18.09
2023-09-25T01:42:29.681Z,17.51
2023-09-25T01:46:31.218Z,17.90
2023-09-25T01:50:33.811Z,18.15
2023-09-25T01:54:36.228Z,17.90
2023-09-25T01:58:38.353Z,17.81
2023-09-25T02:02:41.529Z,17.59
2023-09-25T02:06:43.152Z,17.87
2023-09-25T02:10:44.678Z,18.04
2023-09-25T02:14:46.283Z,17.71
2023-09-25T02:18:48.121Z,17.78
2023-09-25T02:22:52.337Z,17.49
2023-09-25T02:26:53.981Z,17.88
2023-09-25T02:30:55.648Z,17.86
2023-09-25T02:34:57.244Z,17.29
2023-09-25T02:38:58.776Z,17.80
2023-09-25T02:43:01.479Z,17.93
2023-09-25T02:47:03.203Z,18.22
2023-09-25T02:51:04.647Z,17.96
2023-09-25T02:55:06.423Z,17.33
2023-09-25T02:59:09.054Z,18.45
2023-09-25T03:03:10.760Z,18.09
2023-09-25T03:07:12.300Z,17.74
2023-09-25T03:11:13.806Z,17.32
2023-09-25T03:15:15.880Z,18.16
2023-09-25T03:19:17.635Z,18.04
2023-09-25T03:23:19.256Z,18.05
2023-09-25T03:27:20.770Z,17.45
2023-09-25T03:31:22.429Z,18.10
2023-09-25T03:35:24.280Z,18.03
2023-09-25T03:39:26.141Z,17.66
2023-09-25T03:43:28.365Z,17.38
2023-09-25T03:47:30.119Z,17.73
2023-09-25T03:51:31.727Z,17.74
2023-09-25T03:55:33.773Z,17.29
2023-09-25T03:59:35.266Z,17.30
2023-09-25T04:03:36.881Z,16.86
2023-09-25T04:07:39.263Z,17.20
2023-09-25T04:11:40.698Z,17.23
2023-09-25T04:15:42.255Z,17.57
2023-09-25T04:19:45.535Z,17.42
2023-09-25T04:23:47.258Z,17.62
2023-09-25T04:27:56.437Z,17.26
2023-09-25T04:31:58.219Z,17.10
2023-09-25T04:36:02.354Z,16.96
2023-09-25T04:40:08.808Z,17.61
2023-09-25T04:44:10.362Z,17.39
2023-09-25T04:48:12.249Z,17.05
2023-09-25T04:52:13.841Z,16.79
2023-09-25T04:56:22.247Z,17.13
2023-09-25T05:00:26.171Z,16.90
2023-09-25T05:04:28.112Z,17.44
2023-09-25T05:08:29.578Z,17.58
2023-09-25T05:12:31.855Z,16.88
2023-09-25T05:16:33.442Z,17.67
2023-09-25T05:20:35.523Z,17.82
2023-09-25T05:24:37.145Z,17.65
2023-09-25T05:28:38.726Z,17.60
2023-09-25T05:32:44.287Z,17.87
2023-09-25T05:36:46.544Z,17.82
2023-09-25T05:40:48.135Z,17.76
2023-09-25T05:44:49.702Z,17.23
2023-09-25T05:48:51.291Z,17.94
2023-09-25T05:52:53.514Z,17.61
2023-09-25T05:56:54.978Z,17.91
2023-09-25T06:00:56.820Z,18.02
2023-09-25T06:04:58.616Z,18.43
2023-09-25T06:09:00.993Z,17.96
2023-09-25T06:13:03.127Z,18.53
2023-09-25T06:17:04.608Z,18.27
2023-09-25T06:21:06.817Z,19.08
2023-09-25T06:25:12.681Z,18.76
2023-09-25T06:29:15.099Z,18.52
2023-09-25T06:33:17.085Z,19.17
2023-09-25T06:37:18.901Z,18.47
2023-09-25T06:41:20.392Z,19.12
2023-09-25T06:45:22.965Z,19.37
2023-09-25T06:49:24.655Z,19.23
2023-09-25T06:53:26.366Z,19.91
2023-09-25T06:57:28.236Z,20.31
2023-09-25T07:01:30.179Z,20.33
2023-09-25T07:05:31.818Z,19.23
2023-09-25T07:09:33.659Z,20.44
2023-09-25T07:13:35.159Z,20.68
2023-09-25T07:17:36.961Z,20.81
2023-09-25T07:21:38.563Z,21.28
2023-09-25T07:25:40.052Z,20.95
2023-09-25T07:29:46.053Z,20.74
2023-09-25T07:33:47.714Z,21.43
2023-09-25T07:37:50.032Z,22.27
2023-09-25T07:41:51.486Z,21.74
2023-09-25T07:45:53.639Z,21.74
2023-09-25T07:49:55.297Z,21.54
2023-09-25T07:53:59.700Z,21.85
2023-09-25T07:58:04.964Z,22.77
2023-09-25T08:02:07.657Z,22.52
2023-09-25T08:06:12.835Z,22.66
2023-09-25T08:10:14.971Z,22.64
2023-09-25T08:14:16.545Z,23.30
2023-09-25T08:18:18.338Z,23.30
2023-09-25T08:22:20.020Z,24.13
2023-09-25T08:26:21.469Z,24.36
2023-09-25T08:30:24.264Z,24.43
2023-09-25T08:34:25.986Z,24.23
2023-09-25T08:38:27.579Z,24.00
2023-09-25T08:42:29.453Z,23.64
2023-09-25T08:46:31.387Z,25.08
2023-09-25T08:50:34.864Z,25.13
2023-09-25T08:54:37.153Z,25.58
2023-09-25T08:58:43.067Z,25.38
2023-09-25T09:02:45.253Z,25.30
2023-09-25T09:06:46.851Z,25.51
2023-09-25T09:10:48.373Z,25.81
2023-09-25T09:14:49.932Z,25.45
2023-09-25T09:19:07.773Z,25.98
2023-09-25T09:23:10.228Z,25.40
2023-09-25T09:27:13.204Z,26.09
2023-09-25T09:31:15.748Z,26.62
2023-09-25T09:35:24.395Z,26.92
2023-09-25T09:39:38.461Z,26.96
2023-09-25T09:43:42.409Z,26.44
2023-09-25T09:47:48.486Z,27.25
2023-09-25T09:51:51.388Z,27.77
2023-09-25T09:55:54.142Z,26.68
2023-09-25T09:59:57.587Z,27.35
2023-09-25T10:03:59.450Z,28.76
2023-09-25T10:08:11.141Z,28.64
2023-09-25T10:12:12.821Z,27.48
2023-09-25T10:16:16.813Z,28.26
2023-09-25T10:20:39.487Z,29.37
2023-09-25T10:24:46.882Z,28.24
2023-09-25T10:29:10.209Z,28.77
2023-09-25T10:33:12.026Z,29.54
2023-09-25T10:37:14.269Z,28.69
2023-09-25T10:41:16.564Z,29.14
2023-09-25T10:45:23.638Z,29.32
2023-09-25T10:49:25.270Z,29.03
2023-09-25T10:53:28.145Z,28.55
2023-09-25T10:57:30.374Z,29.32
2023-09-25T11:01:32.821Z,28.77
2023-09-25T11:05:39.722Z,29.95
2023-09-25T11:09:41.228Z,28.65
2023-09-25T11:13:43.190Z,29.96
2023-09-25T11:17:46.920Z,29.40
2023-09-25T11:21:51.447Z,29.95
2023-09-25T11:25:54.357Z,31.03
2023-09-25T11:29:56.711Z,30.72
2023-09-25T11:33:58.379Z,32.27
2023-09-25T11:38:02.001Z,30.57
2023-09-25T11:42:04.359Z,30.01
2023-09-25T11:46:06.001Z,30.69
2023-09-25T11:50:08.193Z,30.35
2023-09-25T11:54:10.112Z,31.22
2023-09-25T11:58:11.891Z,31.03
2023-09-25T12:02:13.678Z,31.93
2023-09-25T12:06:15.275Z,32.48
2023-09-25T12:10:20.818Z,33.53
2023-09-25T12:14:22.620Z,32.67
2023-09-25T12:18:24.918Z,31.54
2023-09-25T12:22:27.311Z,32.77
2023-09-25T12:26:29.090Z,33.06
2023-09-25T12:30:30.952Z,31.40
2023-09-25T12:34:32.534Z,31.41
2023-09-25T12:38:34.017Z,32.25
2023-09-25T12:42:51.082Z,32.91
2023-09-25T12:46:53.551Z,31.87
2023-09-25T12:50:55.093Z,32.80
2023-09-25T12:54:57.131Z,33.10
2023-09-25T12:58:59.038Z,33.74
2023-09-25T13:03:00.661Z,33.08
2023-09-25T13:07:02.364Z,33.08
2023-09-25T13:11:03.877Z,33.01
2023-09-25T13:15:07.579Z,32.94
2023-09-25T13:19:09.325Z,34.02
2023-09-25T13:23:11.019Z,32.77
2023-09-25T13:27:12.691Z,33.21
2023-09-25T13:31:14.608Z,31.23
2023-09-25T13:35:17.905Z,32.28
2023-09-25T13:39:19.497Z,32.51
2023-09-25T13:43:21.486Z,32.50
2023-09-25T13:47:25.828Z,32.26
2023-09-25T13:51:27.388Z,32.46
2023-09-25T13:55:28.924Z,33.27
2023-09-25T13:59:30.808Z,33.38
2023-09-25T14:03:32.566Z,33.62
2023-09-25T14:07:34.514Z,33.24
2023-09-25T14:11:37.281Z,33.15
2023-09-25T14:15:39.682Z,33.60
2023-09-25T14:19:41.221Z,32.87
2023-09-25T14:23:42.756Z,33.05
2023-09-25T14:27:44.913Z,32.70
2023-09-25T14:31:46.713Z,33.85
2023-09-25T14:35:48.400Z,33.59
2023-09-25T14:39:50.097Z,33.88
2023-09-25T14:43:52.153Z,32.84
2023-09-25T14:47:54.051Z,32.52
2023-09-25T14:51:57.331Z,31.80
2023-09-25T14:55:58.929Z,31.89
2023-09-25T15:00:00.736Z,30.89
2023-09-25T15:04:02.408Z,30.76
2023-09-25T15:08:04.375Z,31.21
2023-09-25T15:12:06.123Z,31.25
2023-09-25T15:16:09.084Z,30.96
2023-09-25T15:20:10.823Z,30.74
2023-09-25T15:24:12.565Z,30.33
2023-09-25T15:28:14.091Z,30.41
2023-09-25T15:32:16.186Z,29.28
2023-09-25T15:36:18.205Z,29.26
2023-09-25T15:40:24.445Z,30.00
2023-09-25T15:44:26.383Z,29.37
2023-09-25T15:48:28.228Z,28.62
2023-09-25T15:52:29.719Z,29.36
2023-09-25T15:56:31.348Z,28.74
2023-09-25T16:00:32.904Z,29.20
2023-09-25T16:04:36.290Z,28.63
2023-09-25T16:08:37.977Z,29.06
2023-09-25T16:12:39.562Z,29.04
2023-09-25T16:16:41.070Z,28.71
2023-09-25T16:20:43.576Z,28.63
2023-09-25T16:24:45.672Z,28.64
2023-09-25T16:28:47.181Z,28.38
2023-09-25T16:32:48.857Z,28.60
2023-09-25T16:36:50.410Z,28.57
2023-09-25T16:40:52.252Z,28.15
2023-09-25T16:44:53.891Z,28.37
2023-09-25T16:48:55.518Z,27.70
2023-09-25T16:52:57.056Z,28.33
2023-09-25T16:56:58.565Z,28.20
2023-09-25T17:01:00.158Z,27.93
2023-09-25T17:05:01.656Z,27.47
2023-09-25T17:09:03.533Z,27.94
2023-09-25T17:13:09.925Z,27.49
2023-09-25T17:17:11.489Z,27.38
2023-09-25T17:21:13.571Z,27.40
2023-09-25T17:25:15.432Z,27.69
2023-09-25T17:29:17.515Z,27.55
2023-09-25T17:33:19.022Z,27.51
2023-09-25T17:37:20.641Z,27.29
2023-09-25T17:41:22.162Z,27.17
2023-09-25T17:45:23.720Z,26.82
2023-09-25T17:49:25.176Z,27.08
2023-09-25T17:53:26.751Z,27.23
2023-09-25T17:57:28.270Z,27.10
2023-09-25T18:01:29.742Z,27.09
2023-09-25T18:05:31.286Z,26.42
2023-09-25T18:09:32.812Z,26.49
2023-09-25T18:13:34.328Z,26.43
2023-09-25T18:17:35.935Z,26.65
2023-09-25T18:21:37.556Z,26.49
2023-09-25T18:25:41.914Z,26.52
2023-09-25T18:29:43.638Z,26.25
2023-09-25T18:33:45.200Z,25.73
2023-09-25T18:37:46.732Z,25.76
2023-09-25T18:41:48.273Z,25.40
2023-09-25T18:45:49.965Z,26.18
2023-09-25T18:49:51.469Z,25.99
2023-09-25T18:53:53.071Z,26.20
2023-09-25T18:57:54.604Z,25.66
2023-09-25T19:01:56.144Z,24.87
2023-09-25T19:05:57.814Z,25.62
2023-09-25T19:10:04.196Z,25.14
2023-09-25T19:14:05.781Z,25.39
2023-09-25T19:18:07.417Z,25.40
2023-09-25T19:22:09.802Z,25.44
2023-09-25T19:26:11.592Z,24.37
2023-09-25T19:30:14.182Z,24.74
2023-09-25T19:34:15.736Z,25.04
2023-09-25T19:38:17.334Z,25.51
2023-09-25T19:42:18.799Z,25.10
2023-09-25T19:46:20.877Z,25.03
2023-09-25T19:50:22.409Z,24.60
2023-09-25T19:54:23.918Z,24.71
2023-09-25T19:58:25.476Z,24.46
2023-09-25T20:02:26.993Z,24.34
2023-09-25T20:06:28.687Z,24.25
2023-09-25T20:10:30.389Z,24.19
2023-09-25T20:14:31.890Z,23.69
2023-09-25T20:18:33.409Z,23.73
2023-09-25T20:22:34.947Z,24.12
2023-09-25T20:26:36.377Z,24.17
2023-09-25T20:30:37.954Z,23.35
2023-09-25T20:34:39.682Z,24.10
2023-09-25T20:38:41.182Z,24.43
2023-09-25T20:42:42.740Z,24.45
2023-09-25T20:46:49.485Z,24.23
2023-09-25T20:50:51.271Z,24.19
2023-09-25T20:54:52.772Z,23.86
2023-09-25T20:58:54.277Z,23.91
2023-09-25T21:02:56.539Z,24.23
2023-09-25T21:06:58.093Z,24.15
2023-09-25T21:11:00.019Z,24.61
2023-09-25T21:15:01.783Z,23.79
2023-09-25T21:19:03.441Z,24.15
2023-09-25T21:23:05.076Z,23.71
2023-09-25T21:27:06.633Z,23.10
2023-09-25T21:31:08.875Z,23.09
2023-09-25T21:35:10.488Z,23.40
2023-09-25T21:39:12.005Z,23.88
2023-09-25T21:43:13.639Z,23.79
2023-09-25T21:47:15.622Z,23.80
2023-09-25T21:51:17.137Z,23.41
2023-09-25T21:55:18.747Z,23.38
2023-09-25T21:59:20.299Z,22.75
2023-09-25T22:03:21.870Z,22.72
2023-09-25T22:07:23.480Z,23.44
2023-09-25T22:11:25.678Z,22.74
2023-09-25T22:15:29.835Z,22.76
2023-09-25T22:19:31.315Z,22.87
2023-09-25T22:23:35.210Z,22.44
2023-09-25T22:27:36.889Z,22.47
2023-09-25T22:31:40.726Z,22.75
2023-09-25T22:35:42.712Z,22.98
2023-09-25T22:39:44.260Z,22.93
2023-09-25T22:43:47.400Z,23.27
2023-09-25T22:47:48.889Z,22.51
2023-09-25T22:51:50.461Z,22.82
2023-09-25T22:55:51.987Z,22.66
2023-09-25T22:59:56.673Z,22.67
2023-09-25T23:03:58.780Z,22.58
2023-09-25T23:08:00.361Z,22.26
2023-09-25T23:12:02.044Z,22.95
2023-09-25T23:16:03.602Z,22.77
2023-09-25T23:20:24.012Z,22.96
2023-09-25T23:24:25.512Z,22.43
2023-09-25T23:28:27.003Z,22.02
2023-09-25T23:32:28.475Z,23.14
2023-09-25T23:36:29.967Z,23.27
2023-09-25T23:40:31.851Z,22.86
2023-09-25T23:44:33.508Z,21.99
2023-09-25T23:48:37.409Z,23.06
2023-09-25T23:52:40.666Z,22.19
2023-09-25T23:56:42.182Z,22.07
